Time;durP1;ratioP1;P1;durP2;ratioP2;P2;SDS_P1;SDS_P2;PMS_P1;PMS_P2;Temp;Humidity;BMP_temperature;BMP_pressure;BME280_temperature;BME280_humidity;BME280_pressure;Samples;Min_cycle;Max_cycle;Signal;HPM_P1;HPM_P2
2020/12/17 11:43:47;;;;;;;18.13;8.77;;;;;;;9.15;81.85;93889.69;6192049;22;897626;-89
2020/12/17 11:46:17;;;;;;;20.65;8.30;;;;;;;9.02;82.69;93882.66;6194724;23;20017;-88
2020/12/17 11:48:43;;;;;;;17.88;8.63;;;;;;;8.96;82.74;93893.66;6194884;23;20024;-88
2020/12/17 11:51:10;;;;;;;19.00;7.95;;;;;;;8.82;82.97;93895.28;6195002;23;20508;-88
2020/12/17 11:53:39;;;;;;;18.70;8.73;;;;;;;8.09;83.79;93802.09;6196526;23;20013;-90
2020/12/17 11:56:06;;;;;;;16.08;6.93;;;;;;;8.65;84.55;93881.88;6194788;23;20016;-89
2020/12/17 12:01:58;;;;;;;15.55;7.57;;;;;;;8.52;84.35;93891.00;6195037;23;20020;-89
2020/12/17 12:07:53;;;;;;;15.43;7.07;;;;;;;8.46;85.74;93894.28;6194914;23;20512;-89
2020/12/17 12:13:56;;;;;;;18.67;7.90;;;;;;;8.55;85.40;93889.88;6194546;23;20334;-89
2020/12/17 12:20:38;;;;;;;20.27;7.22;;;;;;;8.50;85.53;93898.06;6194456;23;20448;-89
2020/12/17 12:23:06;;;;;;;15.30;6.55;;;;;;;8.32;85.11;93864.38;6195686;23;20083;-89
2020/12/17 12:25:35;;;;;;;14.57;5.90;;;;;;;8.12;84.29;93840.13;6194267;23;20016;-89
2020/12/17 12:28:12;;;;;;;12.35;5.55;;;;;;;8.50;84.71;93898.06;6194500;23;20021;-89
2020/12/17 12:30:38;;;;;;;11.55;6.28;;;;;;;8.41;85.48;93902.50;6194192;23;20013;-89
2020/12/17 12:33:05;;;;;;;18.60;6.85;;;;;;;8.44;85.46;93901.34;6195142;23;20043;-89
2020/12/17 12:35:32;;;;;;;10.30;5.63;;;;;;;8.44;85.33;93901.34;6195455;23;20013;-89
2020/12/17 12:37:58;;;;;;;12.52;6.32;;;;;;;8.51;85.82;93893.72;6195561;23;20313;-89
2020/12/17 12:40:28;;;;;;;18.40;8.45;;;;;;;8.52;85.58;93896.13;6194667;23;20016;-89
2020/12/17 12:46:18;;;;;;;11.68;5.07;;;;;;;8.52;84.54;93885.13;6187376;23;20024;-89
2020/12/17 12:48:59;;;;;;;9.80;5.15;;;;;;;8.61;85.70;93889.13;6187373;23;20457;-89
2020/12/17 12:51:26;;;;;;;13.95;5.45;;;;;;;8.66;84.78;93898.88;6187298;23;20013;-89
2020/12/17 12:53:52;;;;;;;13.93;7.32;;;;;;;8.68;84.72;93897.72;6187268;23;20013;-89
2020/12/17 13:03:03;;;;;;;16.10;7.25;;;;;;;8.64;84.48;93893.91;6100942;23;20363;-89
2020/12/17 13:09:15;;;;;;;9.18;5.35;;;;;;;8.48;84.97;93891.53;6096688;23;20024;-89
2020/12/17 13:18:30;;;;;;;111.47;39.63;;;;;;;8.46;84.13;93893.50;6098166;23;20046;-89
2020/12/17 13:24:18;;;;;;;12.75;6.25;;;;;;;8.51;85.23;93906.53;6131508;23;20023;-89
2020/12/17 13:33:34;;;;;;;17.40;8.15;;;;;;;8.35;84.82;93913.44;6187856;23;20016;-89
2020/12/17 13:36:00;;;;;;;15.18;6.78;;;;;;;8.34;85.28;93911.06;6186864;23;20017;-89
2020/12/17 13:45:33;;;;;;;16.30;7.47;;;;;;;8.17;85.47;93911.25;6157242;23;20330;-89
2020/12/17 13:47:59;;;;;;;;;;;;;;;8.12;86.61;93918.66;6157467;23;20446;-89
2020/12/17 13:50:47;;;;;;;10.25;5.00;;;;;;;8.06;85.50;93912.47;6158355;23;20206;-89
2020/12/17 14:00:21;;;;;;;12.40;5.10;;;;;;;7.86;87.12;93928.34;6156554;23;20426;-90
2020/12/17 14:02:49;;;;;;;15.98;6.10;;;;;;;7.79;86.81;93919.78;6156929;23;20442;-89
2020/12/17 14:05:15;;;;;;;15.50;7.70;;;;;;;7.77;87.48;93933.72;6157895;23;20013;-90
2020/12/17 14:14:41;;;;;;;14.90;6.25;;;;;;;7.51;88.04;93932.34;6156327;23;20024;-89
2020/12/17 14:20:34;;;;;;;13.70;6.72;;;;;;;7.31;89.01;93927.72;6156929;23;20024;-89
2020/12/17 14:26:37;;;;;;;18.42;9.57;;;;;;;7.13;89.56;93916.00;6156887;23;20326;-90
2020/12/17 14:29:04;;;;;;;22.13;9.07;;;;;;;7.03;89.65;93916.22;6156850;23;20017;-90
2020/12/17 14:31:33;;;;;;;16.85;8.45;;;;;;;6.91;90.33;93917.59;6157207;23;20013;-89
2020/12/17 14:34:00;;;;;;;17.90;8.38;;;;;;;6.84;90.66;93920.00;6156581;23;20076;-90
2020/12/17 14:36:26;;;;;;;20.10;8.80;;;;;;;6.74;90.84;93922.78;6156585;23;20018;-89
2020/12/17 14:38:52;;;;;;;;;;;;;;;6.72;90.94;93929.03;6157877;23;20013;-88
2020/12/17 14:41:19;;;;;;;20.63;7.50;;;;;;;6.58;91.25;93922.88;6158030;23;20187;-88
2020/12/17 14:43:46;;;;;;;18.63;7.68;;;;;;;6.52;91.86;93927.66;6164847;23;20024;-88
2020/12/17 14:49:42;;;;;;;20.77;9.07;;;;;;;6.38;92.39;93936.00;6187368;23;20016;-89
2020/12/17 14:52:09;;;;;;;23.95;10.45;;;;;;;6.30;92.67;93931.75;6187076;23;20017;-88
2020/12/17 14:54:36;;;;;;;28.02;12.15;;;;;;;6.28;92.72;93938.75;6186076;23;20020;-88
2020/12/17 14:57:05;;;;;;;26.83;13.80;;;;;;;6.25;92.91;93939.88;6186858;23;20364;-89
2020/12/17 14:59:34;;;;;;;31.23;14.80;;;;;;;6.25;93.12;93944.22;6186779;23;20016;-89
2020/12/17 15:02:08;;;;;;;36.22;16.65;;;;;;;6.23;93.55;93944.38;6186118;23;20021;-89
2020/12/17 15:07:57;;;;;;;29.75;15.52;;;;;;;6.09;93.94;93939.94;6186091;23;20020;-89
2020/12/17 15:10:23;;;;;;;29.02;15.63;;;;;;;6.13;93.78;93946.31;6185479;23;20024;-88
2020/12/17 15:12:49;;;;;;;;;;;;;;;6.13;93.98;93951.41;6185540;23;20021;-88
2020/12/17 15:15:16;;;;;;;23.27;8.80;;;;;;;6.03;94.63;93948.25;6184335;23;19936;-88
2020/12/17 15:17:43;;;;;;;;;;;;;;;6.01;94.45;93949.19;6184800;23;20021;-88
2020/12/17 15:20:11;;;;;;;25.60;12.65;;;;;;;5.86;94.77;93940.59;6183877;23;19912;-89
2020/12/17 15:22:37;;;;;;;19.95;10.48;;;;;;;5.87;95.35;93957.47;6184167;23;20044;-89
2020/12/17 15:25:05;;;;;;;42.58;18.00;;;;;;;5.86;95.44;93954.16;6183954;23;20021;-88
2020/12/17 15:27:32;;;;;;;34.83;16.48;;;;;;;5.79;95.15;93958.28;6183831;23;20067;-88
2020/12/17 15:29:59;;;;;;;35.15;17.13;;;;;;;5.88;95.58;93959.09;6183673;23;20013;-89
2020/12/17 15:32:25;;;;;;;30.90;17.33;;;;;;;5.84;95.86;93955.28;6183481;23;20028;-88
2020/12/17 15:34:52;;;;;;;21.58;11.43;;;;;;;5.91;95.49;93955.41;6183477;23;20021;-88
2020/12/17 15:37:18;;;;;;;22.85;13.48;;;;;;;5.92;95.08;93959.56;6183494;23;20450;-88
2020/12/17 15:39:45;;;;;;;18.13;8.95;;;;;;;5.93;95.14;93969.56;6183411;23;20017;-88
2020/12/17 15:42:12;;;;;;;43.35;18.05;;;;;;;5.93;94.97;93966.25;6183186;23;20017;-88
2020/12/17 15:44:39;;;;;;;28.67;16.25;;;;;;;5.94;95.24;93958.44;6183398;23;20013;-89
2020/12/17 15:47:05;;;;;;;20.85;12.68;;;;;;;5.95;95.25;93961.78;6183311;23;20021;-88
2020/12/17 15:49:31;;;;;;;;;;;;;;;5.95;95.42;93962.59;6184044;23;20017;-88
2020/12/17 15:51:58;;;;;;;17.50;9.13;;;;;;;5.88;95.19;93957.31;6183158;23;19948;-88
2020/12/17 15:54:24;;;;;;;37.90;18.20;;;;;;;5.83;95.41;93961.34;6183287;23;20021;-89
2020/12/17 15:56:51;;;;;;;42.22;22.15;;;;;;;5.84;95.51;93962.91;6183094;23;20063;-88
2020/12/17 15:59:18;;;;;;;49.15;21.15;;;;;;;5.71;95.65;93954.00;6184672;23;20071;-88
2020/12/17 16:01:45;;;;;;;46.10;18.42;;;;;;;5.87;95.85;93965.94;6183861;23;20039;-87
2020/12/17 16:04:14;;;;;;;58.63;25.90;;;;;;;5.89;95.71;93965.78;6183652;23;20013;-87
2020/12/17 16:06:41;;;;;;;46.03;20.70;;;;;;;5.84;95.70;93956.03;6184251;23;20013;-87
2020/12/17 16:09:07;;;;;;;47.65;20.77;;;;;;;5.95;95.56;93964.31;6183681;23;20040;-88
2020/12/17 16:11:34;;;;;;;53.10;19.55;;;;;;;5.95;95.02;93969.41;6183694;23;20025;-89
2020/12/17 16:14:00;;;;;;;42.60;21.35;;;;;;;5.85;95.44;93954.31;6183675;23;20014;-88
2020/12/17 16:16:27;;;;;;;;;;;;;;;5.97;95.23;93972.63;6183863;23;20013;-89
2020/12/17 16:18:53;;;;;;;40.53;20.63;;;;;;;5.84;95.36;93961.16;6184325;23;20640;-88
2020/12/17 16:21:19;;;;;;;;;;;;;;;5.89;95.98;93973.44;6186270;23;20364;-88
2020/12/17 16:23:46;;;;;;;41.65;19.08;;;;;;;5.88;96.09;93970.06;6185028;23;19912;-88
2020/12/17 16:26:12;;;;;;;;;;;;;;;5.91;95.77;93973.25;6186000;23;20017;-88
2020/12/17 16:28:38;;;;;;;49.10;21.00;;;;;;;5.86;95.96;93973.75;6186166;23;20001;-88
2020/12/17 16:31:05;;;;;;;;;;;;;;;5.88;95.84;93984.59;6186009;23;20017;-88
2020/12/17 16:33:32;;;;;;;55.85;23.23;;;;;;;5.62;95.81;93950.66;6185350;23;19923;-88
2020/12/17 16:35:59;;;;;;;52.70;20.98;;;;;;;5.89;95.63;93986.97;6185556;23;20017;-88
2020/12/17 16:38:25;;;;;;;;;;;;;;;5.92;95.84;93985.06;6186129;23;20048;-87
2020/12/17 16:40:52;;;;;;;37.65;18.58;;;;;;;5.86;95.63;93989.03;6185145;23;19912;-88
2020/12/17 16:43:18;;;;;;;38.78;20.02;;;;;;;5.87;95.48;93986.34;6185631;23;20032;-89
2020/12/17 16:45:44;;;;;;;;;;;;;;;5.85;95.66;93987.44;6185675;23;20021;-88
2020/12/17 16:48:11;;;;;;;25.58;12.68;;;;;;;5.81;95.58;93989.53;6185199;23;20408;-88
2020/12/17 16:50:38;;;;;;;;;;;;;;;5.81;95.75;93988.72;6186068;23;20013;-90
2020/12/17 16:53:05;;;;;;;44.33;16.98;;;;;;;5.71;95.83;93991.44;6184332;23;19967;-88
2020/12/17 16:55:32;;;;;;;41.38;17.73;;;;;;;5.75;96.25;93990.94;6184535;23;20181;-88
2020/12/17 16:57:58;;;;;;;;;;;;;;;5.77;96.49;93990.78;6185484;23;20067;-88
2020/12/17 17:00:24;;;;;;;41.67;12.70;;;;;;;5.75;96.26;94000.38;6184754;23;19912;-88
2020/12/17 17:02:51;;;;;;;32.55;16.83;;;;;;;5.77;96.12;94006.09;6184709;23;20017;-87
2020/12/17 17:05:17;;;;;;;51.03;23.77;;;;;;;5.79;96.12;94004.16;6184874;23;20075;-88
2020/12/17 17:07:46;;;;;;;44.97;22.23;;;;;;;5.85;95.79;94007.84;6184861;23;20013;-88
2020/12/17 17:10:13;;;;;;;37.72;21.77;;;;;;;5.89;95.84;94001.47;6185213;23;20013;-88
2020/12/17 17:12:39;;;;;;;35.50;15.27;;;;;;;5.87;95.74;93993.97;6185169;23;20082;-88
2020/12/17 17:15:06;;;;;;;;;;;;;;;5.94;95.75;94001.00;6185243;23;20013;-88
2020/12/17 17:17:32;;;;;;;50.25;24.08;;;;;;;5.78;95.71;93982.19;6184877;23;19912;-90
2020/12/17 17:19:58;;;;;;;;;;;;;;;5.89;96.09;94002.25;6140937;23;20018;-87
2020/12/17 17:22:25;;;;;;;23.73;13.82;;;;;;;5.89;96.33;94006.56;6126104;23;19913;-88
2020/12/17 17:24:52;;;;;;;31.25;13.15;;;;;;;5.91;96.30;94007.19;6126292;23;20020;-88
2020/12/17 17:27:19;;;;;;;28.17;13.93;;;;;;;5.94;95.69;94004.34;6125892;23;20018;-88
2020/12/17 17:29:45;;;;;;;;;;;;;;;5.96;95.56;94006.72;6127117;23;20017;-88
2020/12/17 17:32:11;;;;;;;29.92;13.32;;;;;;;5.95;96.04;94002.56;6126486;23;19913;-88
2020/12/17 17:34:37;;;;;;;38.75;16.10;;;;;;;5.96;96.00;94010.06;6126761;23;20018;-89
2020/12/17 17:37:04;;;;;;;32.15;13.77;;;;;;;6.04;95.49;94013.59;6126400;23;20017;-88
2020/12/17 17:39:30;;;;;;;25.95;13.75;;;;;;;6.06;95.75;94004.81;6126030;23;20018;-89
2020/12/17 17:41:58;;;;;;;;;;;;;;;6.09;95.33;94001.97;6126539;23;20321;-88
2020/12/17 17:44:26;;;;;;;32.17;15.15;;;;;;;6.02;95.44;93998.44;6138840;23;20301;-88
2020/12/17 17:46:53;;;;;;;41.17;19.13;;;;;;;6.07;95.38;94008.19;6155236;23;20028;-89
2020/12/17 17:49:20;;;;;;;38.38;18.67;;;;;;;6.06;95.02;94007.38;6155069;23;20304;-89
2020/12/17 17:51:51;;;;;;;34.13;17.38;;;;;;;6.06;94.90;94004.81;6155114;23;20017;-88
2020/12/17 17:54:18;;;;;;;36.80;15.05;;;;;;;6.07;94.81;93995.44;6155143;23;20017;-88
2020/12/17 17:56:45;;;;;;;30.42;15.93;;;;;;;5.95;94.64;93971.97;6154879;23;20017;-88
2020/12/17 17:59:12;;;;;;;38.92;17.98;;;;;;;6.18;94.60;94005.28;6155278;23;20080;-88
2020/12/17 18:01:39;;;;;;;27.73;14.88;;;;;;;6.10;94.90;93990.78;6155146;23;20018;-89
2020/12/17 18:04:05;;;;;;;;;;;;;;;6.17;94.77;94001.16;6156002;23;20013;-88
2020/12/17 18:06:31;;;;;;;29.52;15.07;;;;;;;6.14;95.22;93999.72;6155093;23;20232;-88
2020/12/17 18:08:58;;;;;;;29.52;12.80;;;;;;;6.12;94.79;94001.63;6154149;23;20018;-88
2020/12/17 18:11:30;;;;;;;34.47;16.25;;;;;;;5.99;94.78;93978.34;6154040;23;20022;-88
2020/12/17 18:13:56;;;;;;;23.80;12.85;;;;;;;6.06;94.66;93999.72;6155013;23;20017;-88
2020/12/17 18:16:23;;;;;;;;;;;;;;;6.07;95.13;93996.19;6155207;23;20017;-87
2020/12/17 18:18:49;;;;;;;32.00;14.48;;;;;;;6.01;95.33;94007.03;6154687;23;20332;-88
2020/12/17 18:21:16;;;;;;;;;;;;;;;6.05;95.40;94008.34;6155334;23;20027;-88
2020/12/17 18:23:42;;;;;;;33.55;11.80;;;;;;;5.97;95.42;93995.56;6154765;23;20317;-89
2020/12/17 18:26:08;;;;;;;;;;;;;;;6.03;95.56;93997.50;6157024;23;20063;-88
2020/12/17 18:28:34;;;;;;;26.05;12.13;;;;;;;5.98;95.49;94002.25;6154694;23;19935;-89
2020/12/17 18:31:01;;;;;;;33.90;14.77;;;;;;;5.95;95.95;94000.03;6154506;23;20025;-88
2020/12/17 18:33:28;;;;;;;;;;;;;;;5.94;96.36;94003.53;6154511;23;20033;-88
2020/12/17 18:35:54;;;;;;;36.80;14.95;;;;;;;5.86;96.04;94002.59;6154931;23;19912;-88
2020/12/17 18:38:20;;;;;;;;;;;;;;;5.86;96.60;94004.34;6157048;23;20071;-88
2020/12/17 18:40:46;;;;;;;26.75;13.85;;;;;;;5.81;97.02;93996.38;6154470;23;19912;-88
2020/12/17 18:43:14;;;;;;;;;;;;;;;5.72;96.92;94004.03;6157245;23;20017;-87
2020/12/17 18:45:41;;;;;;;20.90;9.43;;;;;;;5.66;97.12;94012.31;6155358;23;19987;-88
2020/12/17 18:48:07;;;;;;;21.75;12.02;;;;;;;5.65;98.08;94005.59;6154933;23;20013;-88
2020/12/17 18:50:34;;;;;;;19.73;9.70;;;;;;;5.66;97.32;94006.41;6154819;23;20013;-88
2020/12/17 18:53:01;;;;;;;22.08;10.73;;;;;;;5.60;97.72;93992.56;6155004;23;20023;-89
2020/12/17 18:55:27;;;;;;;;;;;;;;;5.69;98.61;94006.88;6155840;23;20465;-88
2020/12/17 18:57:53;;;;;;;26.00;12.38;;;;;;;5.68;98.38;94010.41;6156967;23;19916;-89
2020/12/17 19:00:21;;;;;;;;;;;;;;;5.70;98.44;94008.47;6156796;23;20021;-89
2020/12/17 19:02:55;;;;;;;23.10;12.57;;;;;;;5.72;99.10;94009.13;6156970;23;19943;-89
2020/12/17 19:05:22;;;;;;;42.42;17.15;;;;;;;5.72;98.54;94004.03;6155075;23;20354;-90
2020/12/17 19:07:54;;;;;;;40.28;16.02;;;;;;;5.68;96.96;94009.59;6155303;23;20517;-89
2020/12/17 19:10:24;;;;;;;44.78;21.27;;;;;;;5.60;98.76;94012.97;6155770;23;20032;-88
2020/12/17 19:12:50;;;;;;;40.53;15.95;;;;;;;5.52;97.61;94018.84;6156975;23;20033;-87
2020/12/17 19:15:17;;;;;;;27.15;13.38;;;;;;;5.21;98.70;94014.34;6156301;23;20096;-88
2020/12/17 19:17:43;;;;;;;35.00;14.32;;;;;;;5.15;99.60;94014.97;6154855;23;20024;-88
2020/12/17 19:20:10;;;;;;;24.27;10.95;;;;;;;4.95;100.00;94010.13;6155969;23;20027;-88
2020/12/17 19:22:36;;;;;;;24.73;13.07;;;;;;;5.00;100.00;94024.94;6155722;23;20022;-88
2020/12/17 19:25:03;;;;;;;;;;;;;;;4.88;100.00;94030.31;6154627;23;20027;-88
2020/12/17 19:27:30;;;;;;;16.88;10.07;;;;;;;4.76;100.00;94031.53;6154613;23;19916;-88
2020/12/17 19:29:58;;;;;;;21.05;10.23;;;;;;;4.78;100.00;94032.97;6155337;23;20481;-88
2020/12/17 19:32:27;;;;;;;21.13;10.90;;;;;;;4.66;100.00;94037.56;6156162;23;20022;-89
2020/12/17 19:34:54;;;;;;;21.52;10.35;;;;;;;4.72;100.00;94035.34;6155612;23;20022;-89
2020/12/17 19:37:20;;;;;;;28.65;15.13;;;;;;;4.74;100.00;94033.44;6154344;23;20018;-89
2020/12/17 19:39:47;;;;;;;26.65;12.75;;;;;;;4.81;100.00;94034.41;6154432;23;20025;-89
2020/12/17 19:42:14;;;;;;;26.75;11.40;;;;;;;4.73;100.00;94026.75;6154238;23;20328;-88
2020/12/17 19:44:41;;;;;;;22.33;11.82;;;;;;;4.68;100.00;94020.38;6154370;23;20454;-89
2020/12/17 19:47:08;;;;;;;36.85;15.55;;;;;;;4.68;100.00;94037.41;6154616;23;20021;-88
2020/12/17 19:49:35;;;;;;;29.98;14.95;;;;;;;4.62;100.00;94036.25;6154177;23;20029;-89
2020/12/17 19:52:02;;;;;;;29.02;14.60;;;;;;;4.67;100.00;94035.78;6154386;23;20027;-88
2020/12/17 19:54:32;;;;;;;33.75;15.73;;;;;;;4.53;100.00;94030.34;6156061;23;20026;-88
2020/12/17 19:56:58;;;;;;;44.58;17.33;;;;;;;4.42;100.00;94038.22;6158238;23;20021;-88
2020/12/17 19:59:27;;;;;;;33.83;13.70;;;;;;;4.37;100.00;94038.69;6158506;23;20028;-89
2020/12/17 20:01:53;;;;;;;41.20;17.38;;;;;;;4.14;100.00;93997.69;6159714;23;20032;-88
2020/12/17 20:07:41;;;;;;;32.78;15.88;;;;;;;4.54;100.00;94046.41;6158174;23;20076;-88
2020/12/17 20:10:08;;;;;;;29.58;14.45;;;;;;;4.61;100.00;94038.94;6156388;23;20072;-88
2020/12/17 20:12:34;;;;;;;27.85;11.48;;;;;;;4.55;100.00;94032.72;6156637;23;20362;-88
2020/12/17 20:15:01;;;;;;;;;;;;;;;4.65;100.00;94040.25;6157393;23;20024;-89
2020/12/17 20:17:27;;;;;;;35.75;14.60;;;;;;;4.62;100.00;94033.72;6156527;23;19926;-88
2020/12/17 20:19:54;;;;;;;31.92;13.98;;;;;;;4.59;100.00;94025.59;6156899;23;20029;-88
2020/12/17 20:22:20;;;;;;;33.95;12.73;;;;;;;4.79;100.00;94042.22;6158502;23;20026;-88
2020/12/17 20:24:46;;;;;;;;;;;;;;;4.70;100.00;94045.69;6156935;23;20021;-89
2020/12/17 20:27:13;;;;;;;26.67;12.52;;;;;;;4.62;100.00;94031.16;6156261;23;19948;-88
2020/12/17 20:29:39;;;;;;;;;;;;;;;4.78;100.00;94047.47;6157881;23;20521;-88
2020/12/17 20:35:28;;;;;;;26.42;12.50;;;;;;;4.75;100.00;94048.56;6158747;23;20103;-87
2020/12/17 20:37:55;;;;;;;23.25;10.50;;;;;;;4.63;100.00;94024.34;6157774;23;20022;-87
2020/12/17 20:40:21;;;;;;;31.30;11.13;;;;;;;4.76;100.00;94052.69;6158763;23;20025;-87
2020/12/17 20:42:47;;;;;;;;;;;;;;;4.81;100.00;94057.31;6158909;23;20521;-87
2020/12/17 20:45:14;;;;;;;32.42;12.27;;;;;;;4.74;100.00;94052.06;6156758;23;19916;-87
2020/12/17 20:47:40;;;;;;;;;;;;;;;4.74;100.00;94054.63;6159302;23;20463;-87
2020/12/17 20:50:06;;;;;;;28.15;11.55;;;;;;;4.66;100.00;94052.81;6158305;23;19947;-87
2020/12/17 20:52:34;;;;;;;25.63;11.32;;;;;;;4.68;100.00;94052.69;6156654;23;20101;-88
2020/12/17 20:55:01;;;;;;;19.98;10.05;;;;;;;4.77;100.00;94053.50;6157557;23;20093;-87
2020/12/17 20:57:27;;;;;;;24.75;11.85;;;;;;;4.85;100.00;94045.13;6158855;23;20029;-87
2020/12/17 20:59:59;;;;;;;23.92;11.23;;;;;;;4.90;100.00;94055.59;6159193;23;20017;-87
2020/12/17 21:02:25;;;;;;;22.70;9.25;;;;;;;4.93;100.00;94051.03;6156676;23;20018;-88
2020/12/17 21:05:28;;;;;;;;;;;;;;;4.94;100.00;94056.91;6157659;23;20021;-88
2020/12/17 21:07:56;;;;;;;27.30;11.98;;;;;;;4.93;100.00;94057.88;6157679;23;19917;-88
2020/12/17 21:10:22;;;;;;;26.85;11.43;;;;;;;4.93;100.00;94057.88;6157569;23;20079;-87
2020/12/17 21:12:51;;;;;;;;;;;;;;;4.91;100.00;94058.00;6158134;23;20017;-88
2020/12/17 21:15:18;;;;;;;27.23;12.80;;;;;;;4.89;100.00;94064.19;6158382;23;19920;-88
2020/12/17 21:17:44;;;;;;;;;;;;;;;4.80;100.00;94053.19;6158235;23;20023;-88
2020/12/17 21:20:10;;;;;;;18.55;9.75;;;;;;;4.55;100.00;94053.88;6158099;23;19946;-88
2020/12/17 21:22:36;;;;;;;32.45;12.05;;;;;;;4.53;100.00;94039.69;6156864;23;20018;-88
2020/12/17 21:25:04;;;;;;;;;;;;;;;4.45;100.00;94060.03;6160012;23;20023;-88
2020/12/17 21:27:35;;;;;;;38.22;15.75;;;;;;;4.27;100.00;94046.41;6156200;23;19916;-88
2020/12/17 21:30:01;;;;;;;23.70;11.98;;;;;;;4.21;100.00;94059.72;6157449;23;20096;-88
2020/12/17 21:32:27;;;;;;;21.58;11.82;;;;;;;4.22;100.00;94055.44;6155918;23;20025;-89
2020/12/17 21:34:53;;;;;;;;;;;;;;;4.35;100.00;94065.22;6157084;23;20040;-87
2020/12/17 21:37:20;;;;;;;35.80;16.45;;;;;;;4.33;100.00;94065.38;6154661;23;19924;-87
2020/12/17 21:39:46;;;;;;;40.00;15.07;;;;;;;4.23;100.00;94062.94;6155344;23;20024;-88
2020/12/17 21:42:14;;;;;;;29.88;13.73;;;;;;;4.18;100.00;94065.13;6155479;23;20021;-88
2020/12/17 21:44:41;;;;;;;30.80;13.55;;;;;;;4.22;100.00;94060.53;6155351;23;20029;-88
2020/12/17 21:47:07;;;;;;;37.53;16.08;;;;;;;4.24;100.00;94066.25;6155100;23;20021;-88
2020/12/17 21:49:34;;;;;;;28.88;12.25;;;;;;;4.22;100.00;94057.97;6154637;23;20028;-88
2020/12/17 21:52:00;;;;;;;;;;;;;;;4.20;100.00;94060.66;6155948;23;20045;-87
2020/12/17 21:54:26;;;;;;;37.60;13.60;;;;;;;4.01;100.00;94059.09;6154490;23;20391;-87
2020/12/17 21:56:53;;;;;;;29.52;14.02;;;;;;;4.02;100.00;94058.16;6154195;23;20485;-88
2020/12/17 21:59:21;;;;;;;29.33;13.55;;;;;;;3.76;100.00;94063.19;6154294;23;20028;-88
2020/12/17 22:01:47;;;;;;;30.40;14.05;;;;;;;3.72;100.00;94063.50;6154689;23;20018;-88
2020/12/17 22:04:14;;;;;;;31.70;12.60;;;;;;;3.83;100.00;94067.56;6154710;23;20324;-88
2020/12/17 22:06:40;;;;;;;19.63;10.85;;;;;;;3.61;100.00;94063.69;6153976;23;20021;-88
2020/12/17 22:09:06;;;;;;;;;;;;;;;3.48;100.00;94062.31;6154839;23;20022;-88
2020/12/17 22:11:32;;;;;;;30.38;12.65;;;;;;;3.69;100.00;94068.06;6154359;23;19916;-90
2020/12/17 22:13:59;;;;;;;33.80;12.05;;;;;;;3.58;100.00;94064.00;6154275;23;20025;-88
2020/12/17 22:16:26;;;;;;;38.25;13.15;;;;;;;3.82;100.00;94060.06;6154203;23;20454;-88
2020/12/17 22:18:53;;;;;;;28.77;11.30;;;;;;;3.80;100.00;94061.97;6154437;23;20452;-88
2020/12/17 22:21:20;;;;;;;34.25;13.60;;;;;;;3.88;100.00;94060.28;6154120;23;20018;-90
2020/12/17 22:23:46;;;;;;;38.10;13.55;;;;;;;3.99;100.00;94063.56;6154800;23;20018;-89
2020/12/17 22:26:13;;;;;;;29.92;12.57;;;;;;;4.04;100.00;94065.63;6154098;23;20458;-90
2020/12/17 22:28:40;;;;;;;26.17;13.40;;;;;;;4.11;100.00;94067.44;6154181;23;20032;-88
2020/12/17 22:31:06;;;;;;;;;;;;;;;4.22;100.00;94058.75;6154964;23;20525;-88
2020/12/17 22:33:33;;;;;;;25.15;11.63;;;;;;;4.21;100.00;94064.03;6154181;23;19960;-88
2020/12/17 22:35:59;;;;;;;33.40;12.18;;;;;;;4.23;100.00;94055.28;6154894;23;20018;-88
2020/12/17 22:38:26;;;;;;;26.95;9.93;;;;;;;4.31;100.00;94064.72;6153961;23;20029;-88
2020/12/17 22:40:52;;;;;;;;;;;;;;;4.40;100.00;94060.50;6154805;23;20096;-88
2020/12/17 22:43:18;;;;;;;21.10;9.98;;;;;;;4.38;100.00;94063.19;6152402;23;19963;-88
2020/12/17 22:45:44;;;;;;;;;;;;;;;4.44;100.00;94056.66;6155289;23;20017;-88
2020/12/17 22:48:11;;;;;;;27.63;10.38;;;;;;;4.40;100.00;94057.94;6154000;23;19943;-88
2020/12/17 22:50:38;;;;;;;27.50;10.30;;;;;;;4.47;100.00;94061.47;6154227;23;20073;-88
2020/12/17 22:53:04;;;;;;;20.20;7.90;;;;;;;4.34;100.00;94028.81;6154003;23;20068;-88
2020/12/17 22:55:30;;;;;;;;;;;;;;;4.58;100.00;94052.00;6154738;23;20022;-88
2020/12/17 22:57:57;;;;;;;17.77;8.02;;;;;;;4.56;100.00;94052.13;6154188;23;19921;-88
2020/12/17 23:00:23;;;;;;;;;;;;;;;4.54;100.00;94048.97;6154756;23;20028;-88
2020/12/17 23:02:49;;;;;;;24.02;7.35;;;;;;;4.46;100.00;94051.44;6154723;23;19963;-87
2020/12/17 23:05:16;;;;;;;;;;;;;;;4.44;100.00;94056.66;6155371;23;20017;-88
2020/12/17 23:07:43;;;;;;;20.88;9.35;;;;;;;4.43;100.00;94055.09;6154327;23;19916;-89
2020/12/17 23:10:10;;;;;;;22.38;9.68;;;;;;;4.42;100.00;94056.03;6154365;23;20025;-89
2020/12/17 23:12:36;;;;;;;24.58;8.38;;;;;;;4.49;100.00;94051.94;6154446;23;20032;-88
2020/12/17 23:15:03;;;;;;;23.33;8.27;;;;;;;4.51;100.00;94052.59;6153884;23;20032;-88
2020/12/17 23:17:29;;;;;;;22.65;7.10;;;;;;;4.50;100.00;94045.09;6153796;23;20024;-87
2020/12/17 23:19:56;;;;;;;;;;;;;;;4.53;100.00;94043.06;6154558;23;20021;-88
2020/12/17 23:22:22;;;;;;;28.27;8.73;;;;;;;4.50;100.00;94045.09;6154277;23;20348;-88
2020/12/17 23:24:49;;;;;;;;;;;;;;;4.55;100.00;94043.69;6155159;23;20387;-88
2020/12/17 23:27:15;;;;;;;15.85;7.82;;;;;;;4.55;100.00;94048.00;6154573;23;20245;-88
2020/12/17 23:29:41;;;;;;;;;;;;;;;4.63;100.00;94047.25;6155248;23;20029;-88
2020/12/17 23:32:08;;;;;;;17.73;8.80;;;;;;;4.54;100.00;94037.00;6154675;23;19917;-90
2020/12/17 23:34:34;;;;;;;22.20;8.27;;;;;;;4.58;100.00;94047.69;6154075;23;20022;-88
2020/12/17 23:37:00;;;;;;;;;;;;;;;4.63;100.00;94053.13;6154936;23;20484;-88
2020/12/17 23:39:27;;;;;;;23.67;7.75;;;;;;;4.63;100.00;94052.34;6154103;23;19924;-88
2020/12/17 23:41:54;;;;;;;;;;;;;;;4.63;100.00;94048.03;6155185;23;20311;-87
2020/12/17 23:44:20;;;;;;;27.88;9.65;;;;;;;4.60;100.00;94055.97;6154620;23;19917;-88
2020/12/17 23:46:46;;;;;;;;;;;;;;;4.59;100.00;94051.84;6154916;23;20112;-89
2020/12/17 23:49:13;;;;;;;21.98;8.35;;;;;;;4.57;100.00;94055.50;6154264;23;19921;-89
2020/12/17 23:51:39;;;;;;;;;;;;;;;4.57;100.00;94055.50;6156250;23;20024;-88
2020/12/17 23:54:05;;;;;;;24.90;9.48;;;;;;;4.55;100.00;94056.41;6154467;23;19916;-89
2020/12/17 23:56:33;;;;;;;22.63;7.90;;;;;;;4.60;100.00;94058.53;6154010;23;20022;-87
2020/12/17 23:59:00;;;;;;;14.50;8.45;;;;;;;4.61;100.00;94059.31;6154298;23;20018;-88
